Форум клана ЧПУшников

Информация о пользователе

Привет, Гость! Войдите или зарегистрируйтесь.


Вы здесь » Форум клана ЧПУшников » Лазерные станки


Лазерные станки

Тем 1 страница 80 из 557

Тема Ответов Просмотров Последнее сообщение
879 65191 28-12-2019 14:45:13  Kinetic
672 14678 08-12-2019 04:37:13  IgorFa
166 7976 14-03-2019 15:48:56  Vegas 52
26 425 Вчера 20:34:14  Русаков
7 141 Вчера 09:22:53  shatrovmaxim
230 23691 17-01-2020 10:27:14  Kuz
14 375 17-01-2020 09:53:25  witch18
1 40 12-01-2020 16:48:14  kartinka
9 MPC 6515C  Neudrums
9 284 27-12-2019 14:29:57  Shanish
12 255 26-12-2019 09:23:31  Kuz
7 175 25-12-2019 18:17:48  ilya37rus
4 102 19-12-2019 14:28:15  Tony84
1 82 16-12-2019 01:35:08  zahar44
4 124 14-12-2019 06:50:23  Ghost-51
21 1875 11-12-2019 16:09:46  yri71
16 Trocen vs RUIDA  ptolik
11 600 08-12-2019 17:37:51  Andrew_SV_GAD
25 964 03-12-2019 16:43:35  Andy52280
0 49 03-12-2019 02:41:51  TStarik
4 165 02-12-2019 18:43:32  urim
9 185 26-11-2019 12:56:24  denisej
6 113 25-11-2019 22:24:27  Jek44
0 90 24-11-2019 19:02:20  Smol57
26 1081 23-11-2019 09:11:30  vlad34
10 268 22-11-2019 17:40:21  Калач!
70 4860 16-11-2019 01:19:35  anarxi
2 101 15-11-2019 18:31:48  koolobok
165 12927 15-11-2019 10:03:35  izostudia
3 176 11-11-2019 10:35:48  Kuz
3 201 09-11-2019 20:41:41  vasa29
3 167 03-11-2019 22:24:39  stapelmoor
13 318 31-10-2019 12:30:02  Andy52280
4 180 29-10-2019 13:36:03  Andy52280
3 79 24-10-2019 20:55:44  Artem14717
1 57 21-10-2019 12:48:49  Kuz
4 1582 16-10-2019 00:31:27  Kenny
9 187 11-10-2019 11:13:41  shatrovmaxim
24 537 01-10-2019 16:22:23  ilya37rus
332 17393 01-10-2019 15:18:13  ilya37rus
206 9940 25-09-2019 16:37:52  adres
4 115 23-09-2019 16:55:57  adres
16 393 21-09-2019 13:50:03  ydav75
44 1287 21-09-2019 13:15:26  ydav75
10 325 21-09-2019 11:07:05  Борис Мишагин
2 101 19-09-2019 13:00:43  chirik
341 32285 19-09-2019 11:34:20  ilya37rus
8 356 17-09-2019 08:02:32  shatrovmaxim
16 646 09-09-2019 18:55:47  tonks
20 234 31-08-2019 11:26:41  valeribeglaryan
1 127 30-08-2019 01:45:31  ilya37rus
4 230 26-08-2019 21:46:47  Dandarrio
197 7525 26-08-2019 21:33:53  Dandarrio
7 201 26-08-2019 08:52:34  nevborisov26
2 191 16-08-2019 15:19:26  ilya37rus
54 На ходу пропал луч.  Анатолий w38
3 117 16-08-2019 10:46:54  Andy52280
7 168 16-08-2019 06:23:10  serge78ss
1 129 14-08-2019 20:26:11  ilya37rus
2 151 13-08-2019 07:21:14  RD3
1 84 01-08-2019 17:14:40  Sanana
16 379 24-07-2019 12:28:25  Alex76
13 391 19-07-2019 22:51:01  Wikbol
10 264 19-07-2019 12:54:43  Sanana
1 174 18-07-2019 22:39:57  Kirian
2 234 16-07-2019 16:16:36  sgluk
64 Мой Veno 503  mikhAN
96 2815 10-07-2019 17:59:24  mikhAN
3 147 05-07-2019 13:03:01  Andy52280
3 274 05-07-2019 10:30:50  qump
132 7945 03-07-2019 19:31:39  igordad
19 515 24-06-2019 13:29:16  igordad
12 301 06-06-2019 23:25:05  АндрейKosiv
2 213 03-06-2019 16:48:51  Andy52280
1 213 27-05-2019 02:42:37  ИгорьМ
9 286 25-05-2019 17:56:20  Dolflex
171 5623 24-05-2019 19:44:19  musicman3
283 11276 14-05-2019 07:57:39  esb
7 296 07-05-2019 13:02:02  Kuz
2 239 07-05-2019 12:59:07  Kuz
0 103 03-05-2019 09:57:22  Op023
12 368 02-05-2019 16:59:51  Fredi1903
236 23586 30-04-2019 12:06:13  miamifan91
80 контроллер TL-403  Алексей Степанов
5 165 29-04-2019 18:38:22  Сергеич

Вы здесь » Форум клана ЧПУшников » Лазерные станки